sensor_id;sensor_type;location;lat;lon;timestamp;P1;durP1;ratioP1;P2;durP2;ratioP2
29044;SDS011;16133;49.486;12.176;2022-12-07T00:03:45;8.68;;;4.15;;
29044;SDS011;16133;49.486;12.176;2022-12-07T00:06:12;9.07;;;4.55;;
29044;SDS011;16133;49.486;12.176;2022-12-07T00:08:38;8.38;;;4.78;;
29044;SDS011;16133;49.486;12.176;2022-12-07T00:11:13;9.95;;;4.45;;
29044;SDS011;16133;49.486;12.176;2022-12-07T00:13:40;7.82;;;4.15;;
29044;SDS011;16133;49.486;12.176;2022-12-07T00:16:07;8.65;;;4.43;;
29044;SDS011;16133;49.486;12.176;2022-12-07T00:18:35;8.07;;;4.35;;
29044;SDS011;16133;49.486;12.176;2022-12-07T00:21:21;7.90;;;3.95;;
29044;SDS011;16133;49.486;12.176;2022-12-07T00:23:48;7.75;;;4.10;;
29044;SDS011;16133;49.486;12.176;2022-12-07T00:26:16;7.25;;;3.97;;
29044;SDS011;16133;49.486;12.176;2022-12-07T00:28:53;9.68;;;4.53;;
29044;SDS011;16133;49.486;12.176;2022-12-07T00:31:21;9.80;;;4.60;;
29044;SDS011;16133;49.486;12.176;2022-12-07T00:33:48;9.48;;;5.05;;
29044;SDS011;16133;49.486;12.176;2022-12-07T00:36:15;10.23;;;5.03;;
29044;SDS011;16133;49.486;12.176;2022-12-07T00:38:42;9.95;;;4.80;;
29044;SDS011;16133;49.486;12.176;2022-12-07T00:41:12;8.30;;;4.50;;
29044;SDS011;16133;49.486;12.176;2022-12-07T00:43:40;10.50;;;4.68;;
29044;SDS011;16133;49.486;12.176;2022-12-07T00:46:06;11.55;;;5.35;;
29044;SDS011;16133;49.486;12.176;2022-12-07T00:48:32;11.88;;;5.55;;
29044;SDS011;16133;49.486;12.176;2022-12-07T00:50:58;9.70;;;5.25;;
29044;SDS011;16133;49.486;12.176;2022-12-07T00:53:24;10.80;;;5.60;;
29044;SDS011;16133;49.486;12.176;2022-12-07T00:55:49;8.75;;;5.18;;
29044;SDS011;16133;49.486;12.176;2022-12-07T00:58:15;9.38;;;5.20;;
29044;SDS011;16133;49.486;12.176;2022-12-07T01:00:41;8.82;;;4.55;;
29044;SDS011;16133;49.486;12.176;2022-12-07T01:03:08;11.70;;;6.18;;
29044;SDS011;16133;49.486;12.176;2022-12-07T01:05:35;10.05;;;5.53;;
29044;SDS011;16133;49.486;12.176;2022-12-07T01:08:01;12.57;;;6.53;;
29044;SDS011;16133;49.486;12.176;2022-12-07T01:10:27;11.40;;;6.20;;
29044;SDS011;16133;49.486;12.176;2022-12-07T01:12:52;12.25;;;6.07;;
29044;SDS011;16133;49.486;12.176;2022-12-07T01:15:18;11.07;;;6.35;;
29044;SDS011;16133;49.486;12.176;2022-12-07T01:17:43;11.98;;;6.05;;
29044;SDS011;16133;49.486;12.176;2022-12-07T01:20:09;12.00;;;5.85;;
29044;SDS011;16133;49.486;12.176;2022-12-07T01:22:38;11.55;;;5.43;;
29044;SDS011;16133;49.486;12.176;2022-12-07T01:25:05;8.27;;;5.07;;
29044;SDS011;16133;49.486;12.176;2022-12-07T01:27:32;12.60;;;6.65;;
29044;SDS011;16133;49.486;12.176;2022-12-07T01:29:58;10.05;;;6.00;;
29044;SDS011;16133;49.486;12.176;2022-12-07T01:32:24;11.63;;;6.28;;
29044;SDS011;16133;49.486;12.176;2022-12-07T01:34:49;11.63;;;5.93;;
29044;SDS011;16133;49.486;12.176;2022-12-07T01:37:15;13.18;;;6.68;;
29044;SDS011;16133;49.486;12.176;2022-12-07T01:39:40;9.63;;;5.72;;
29044;SDS011;16133;49.486;12.176;2022-12-07T01:42:09;10.30;;;5.50;;
29044;SDS011;16133;49.486;12.176;2022-12-07T01:45:14;11.27;;;6.18;;
29044;SDS011;16133;49.486;12.176;2022-12-07T01:47:38;10.82;;;6.07;;
29044;SDS011;16133;49.486;12.176;2022-12-07T01:50:04;11.27;;;6.22;;
29044;SDS011;16133;49.486;12.176;2022-12-07T01:52:30;10.43;;;5.68;;
29044;SDS011;16133;49.486;12.176;2022-12-07T01:54:59;11.07;;;6.13;;
29044;SDS011;16133;49.486;12.176;2022-12-07T01:57:28;13.13;;;6.13;;
29044;SDS011;16133;49.486;12.176;2022-12-07T01:59:55;9.75;;;5.22;;
29044;SDS011;16133;49.486;12.176;2022-12-07T02:02:34;11.13;;;5.60;;
29044;SDS011;16133;49.486;12.176;2022-12-07T02:05:03;9.60;;;5.53;;
29044;SDS011;16133;49.486;12.176;2022-12-07T02:07:30;12.38;;;6.72;;
29044;SDS011;16133;49.486;12.176;2022-12-07T02:09:57;10.35;;;5.80;;
29044;SDS011;16133;49.486;12.176;2022-12-07T02:12:22;11.23;;;5.97;;
29044;SDS011;16133;49.486;12.176;2022-12-07T02:14:49;13.35;;;6.60;;
29044;SDS011;16133;49.486;12.176;2022-12-07T02:17:19;15.20;;;8.05;;
29044;SDS011;16133;49.486;12.176;2022-12-07T02:19:59;19.95;;;9.07;;
29044;SDS011;16133;49.486;12.176;2022-12-07T02:31:44;13.38;;;7.10;;
29044;SDS011;16133;49.486;12.176;2022-12-07T02:36:50;11.48;;;6.40;;
29044;SDS011;16133;49.486;12.176;2022-12-07T02:42:14;13.98;;;6.95;;
29044;SDS011;16133;49.486;12.176;2022-12-07T02:44:44;14.35;;;7.10;;
29044;SDS011;16133;49.486;12.176;2022-12-07T02:47:12;13.15;;;6.78;;
29044;SDS011;16133;49.486;12.176;2022-12-07T02:49:41;12.80;;;6.72;;
29044;SDS011;16133;49.486;12.176;2022-12-07T02:52:07;12.30;;;6.55;;
29044;SDS011;16133;49.486;12.176;2022-12-07T02:54:32;14.07;;;7.20;;
29044;SDS011;16133;49.486;12.176;2022-12-07T02:57:01;13.15;;;6.68;;
29044;SDS011;16133;49.486;12.176;2022-12-07T03:02:46;11.18;;;6.30;;
29044;SDS011;16133;49.486;12.176;2022-12-07T03:10:17;12.43;;;6.80;;
29044;SDS011;16133;49.486;12.176;2022-12-07T03:12:57;12.73;;;6.60;;
29044;SDS011;16133;49.486;12.176;2022-12-07T03:15:41;11.65;;;6.95;;
29044;SDS011;16133;49.486;12.176;2022-12-07T03:18:11;13.02;;;6.95;;
29044;SDS011;16133;49.486;12.176;2022-12-07T03:20:39;14.18;;;6.63;;
29044;SDS011;16133;49.486;12.176;2022-12-07T03:23:07;11.48;;;6.93;;
29044;SDS011;16133;49.486;12.176;2022-12-07T03:25:35;13.70;;;6.65;;
29044;SDS011;16133;49.486;12.176;2022-12-07T03:28:07;10.85;;;5.63;;
29044;SDS011;16133;49.486;12.176;2022-12-07T03:33:11;10.65;;;6.13;;
29044;SDS011;16133;49.486;12.176;2022-12-07T03:35:47;8.38;;;4.63;;
29044;SDS011;16133;49.486;12.176;2022-12-07T03:38:22;10.45;;;5.85;;
29044;SDS011;16133;49.486;12.176;2022-12-07T03:43:24;11.77;;;6.10;;
29044;SDS011;16133;49.486;12.176;2022-12-07T03:45:54;14.25;;;7.05;;
29044;SDS011;16133;49.486;12.176;2022-12-07T03:48:28;12.55;;;7.53;;
29044;SDS011;16133;49.486;12.176;2022-12-07T03:51:14;16.13;;;8.55;;
29044;SDS011;16133;49.486;12.176;2022-12-07T03:56:38;19.95;;;9.43;;
29044;SDS011;16133;49.486;12.176;2022-12-07T03:59:05;18.75;;;9.52;;
29044;SDS011;16133;49.486;12.176;2022-12-07T04:01:31;20.58;;;9.65;;
29044;SDS011;16133;49.486;12.176;2022-12-07T04:03:57;19.50;;;9.50;;
29044;SDS011;16133;49.486;12.176;2022-12-07T04:06:22;25.25;;;11.63;;
29044;SDS011;16133;49.486;12.176;2022-12-07T04:08:48;25.17;;;10.80;;
29044;SDS011;16133;49.486;12.176;2022-12-07T04:11:13;25.55;;;10.77;;
29044;SDS011;16133;49.486;12.176;2022-12-07T04:13:38;24.15;;;11.25;;
29044;SDS011;16133;49.486;12.176;2022-12-07T04:16:22;21.48;;;9.68;;
29044;SDS011;16133;49.486;12.176;2022-12-07T04:18:48;23.88;;;9.90;;
29044;SDS011;16133;49.486;12.176;2022-12-07T04:21:13;20.55;;;10.02;;
29044;SDS011;16133;49.486;12.176;2022-12-07T04:23:38;22.10;;;9.68;;
29044;SDS011;16133;49.486;12.176;2022-12-07T04:26:04;34.92;;;16.40;;
29044;SDS011;16133;49.486;12.176;2022-12-07T04:28:29;32.78;;;14.63;;
29044;SDS011;16133;49.486;12.176;2022-12-07T04:30:55;31.48;;;13.32;;
29044;SDS011;16133;49.486;12.176;2022-12-07T04:33:20;36.20;;;15.25;;
29044;SDS011;16133;49.486;12.176;2022-12-07T04:35:45;29.95;;;14.15;;
29044;SDS011;16133;49.486;12.176;2022-12-07T04:38:11;29.65;;;13.43;;
29044;SDS011;16133;49.486;12.176;2022-12-07T04:40:36;32.20;;;13.40;;
29044;SDS011;16133;49.486;12.176;2022-12-07T04:43:01;28.33;;;12.27;;
29044;SDS011;16133;49.486;12.176;2022-12-07T04:45:27;30.33;;;13.90;;
29044;SDS011;16133;49.486;12.176;2022-12-07T04:47:52;33.97;;;13.85;;
29044;SDS011;16133;49.486;12.176;2022-12-07T04:50:18;34.22;;;14.48;;
29044;SDS011;16133;49.486;12.176;2022-12-07T04:52:43;28.73;;;13.20;;
29044;SDS011;16133;49.486;12.176;2022-12-07T04:55:08;26.38;;;12.10;;
29044;SDS011;16133;49.486;12.176;2022-12-07T04:57:34;24.95;;;11.18;;
29044;SDS011;16133;49.486;12.176;2022-12-07T04:59:59;25.48;;;12.23;;
29044;SDS011;16133;49.486;12.176;2022-12-07T05:02:24;25.58;;;10.93;;
29044;SDS011;16133;49.486;12.176;2022-12-07T05:04:50;28.02;;;12.13;;
29044;SDS011;16133;49.486;12.176;2022-12-07T05:07:15;27.02;;;11.68;;
29044;SDS011;16133;49.486;12.176;2022-12-07T05:09:40;25.25;;;11.88;;
29044;SDS011;16133;49.486;12.176;2022-12-07T05:12:06;27.90;;;13.23;;
29044;SDS011;16133;49.486;12.176;2022-12-07T05:14:31;33.67;;;12.75;;
29044;SDS011;16133;49.486;12.176;2022-12-07T05:16:57;31.30;;;13.32;;
29044;SDS011;16133;49.486;12.176;2022-12-07T05:19:22;31.25;;;13.70;;
29044;SDS011;16133;49.486;12.176;2022-12-07T05:21:47;56.83;;;21.25;;
29044;SDS011;16133;49.486;12.176;2022-12-07T05:24:13;49.30;;;20.42;;
29044;SDS011;16133;49.486;12.176;2022-12-07T05:26:40;61.20;;;23.33;;
29044;SDS011;16133;49.486;12.176;2022-12-07T05:29:06;59.10;;;22.60;;
29044;SDS011;16133;49.486;12.176;2022-12-07T05:31:32;55.92;;;22.65;;
29044;SDS011;16133;49.486;12.176;2022-12-07T05:33:57;56.15;;;21.27;;
29044;SDS011;16133;49.486;12.176;2022-12-07T05:36:23;47.90;;;19.13;;
29044;SDS011;16133;49.486;12.176;2022-12-07T05:38:48;51.40;;;19.45;;
29044;SDS011;16133;49.486;12.176;2022-12-07T05:41:15;39.38;;;15.88;;
29044;SDS011;16133;49.486;12.176;2022-12-07T05:44:01;43.55;;;19.17;;
29044;SDS011;16133;49.486;12.176;2022-12-07T05:46:26;38.97;;;15.60;;
29044;SDS011;16133;49.486;12.176;2022-12-07T05:48:51;33.15;;;13.38;;
29044;SDS011;16133;49.486;12.176;2022-12-07T05:51:17;31.55;;;13.63;;
29044;SDS011;16133;49.486;12.176;2022-12-07T05:53:43;40.92;;;17.63;;
29044;SDS011;16133;49.486;12.176;2022-12-07T05:56:09;39.60;;;15.68;;
29044;SDS011;16133;49.486;12.176;2022-12-07T05:58:34;32.88;;;13.10;;
29044;SDS011;16133;49.486;12.176;2022-12-07T06:01:18;29.73;;;13.98;;
29044;SDS011;16133;49.486;12.176;2022-12-07T06:03:43;30.38;;;13.60;;
29044;SDS011;16133;49.486;12.176;2022-12-07T06:06:10;29.98;;;13.80;;
29044;SDS011;16133;49.486;12.176;2022-12-07T06:08:35;31.95;;;13.68;;
29044;SDS011;16133;49.486;12.176;2022-12-07T06:11:01;28.08;;;12.68;;
29044;SDS011;16133;49.486;12.176;2022-12-07T06:13:45;33.88;;;14.20;;
29044;SDS011;16133;49.486;12.176;2022-12-07T06:16:10;31.90;;;14.10;;
29044;SDS011;16133;49.486;12.176;2022-12-07T06:18:35;32.47;;;13.57;;
29044;SDS011;16133;49.486;12.176;2022-12-07T06:21:01;33.20;;;14.32;;
29044;SDS011;16133;49.486;12.176;2022-12-07T06:23:26;32.45;;;13.90;;
29044;SDS011;16133;49.486;12.176;2022-12-07T06:25:51;31.77;;;13.98;;
29044;SDS011;16133;49.486;12.176;2022-12-07T06:28:17;31.23;;;12.77;;
29044;SDS011;16133;49.486;12.176;2022-12-07T06:30:42;30.40;;;12.95;;
29044;SDS011;16133;49.486;12.176;2022-12-07T06:33:08;31.33;;;13.93;;
29044;SDS011;16133;49.486;12.176;2022-12-07T06:35:33;33.05;;;13.52;;
29044;SDS011;16133;49.486;12.176;2022-12-07T06:37:58;30.60;;;13.63;;
29044;SDS011;16133;49.486;12.176;2022-12-07T06:40:24;34.28;;;14.23;;
29044;SDS011;16133;49.486;12.176;2022-12-07T06:42:49;36.42;;;14.20;;
29044;SDS011;16133;49.486;12.176;2022-12-07T06:45:15;31.95;;;13.05;;
29044;SDS011;16133;49.486;12.176;2022-12-07T06:47:40;33.70;;;14.45;;
29044;SDS011;16133;49.486;12.176;2022-12-07T06:50:06;35.72;;;14.35;;
29044;SDS011;16133;49.486;12.176;2022-12-07T06:52:32;38.85;;;14.30;;
29044;SDS011;16133;49.486;12.176;2022-12-07T06:54:58;34.97;;;13.98;;
29044;SDS011;16133;49.486;12.176;2022-12-07T06:57:24;35.10;;;14.40;;
29044;SDS011;16133;49.486;12.176;2022-12-07T06:59:49;37.50;;;14.00;;
29044;SDS011;16133;49.486;12.176;2022-12-07T07:02:15;32.20;;;13.25;;
29044;SDS011;16133;49.486;12.176;2022-12-07T07:04:40;31.77;;;14.50;;
29044;SDS011;16133;49.486;12.176;2022-12-07T07:07:06;35.00;;;13.20;;
29044;SDS011;16133;49.486;12.176;2022-12-07T07:09:31;32.22;;;12.65;;
29044;SDS011;16133;49.486;12.176;2022-12-07T07:11:57;29.75;;;13.05;;
29044;SDS011;16133;49.486;12.176;2022-12-07T07:14:22;33.80;;;13.60;;
29044;SDS011;16133;49.486;12.176;2022-12-07T07:16:47;29.58;;;12.93;;
29044;SDS011;16133;49.486;12.176;2022-12-07T07:19:13;29.00;;;13.40;;
29044;SDS011;16133;49.486;12.176;2022-12-07T07:21:38;38.17;;;14.43;;
29044;SDS011;16133;49.486;12.176;2022-12-07T07:24:03;31.92;;;12.63;;
29044;SDS011;16133;49.486;12.176;2022-12-07T07:26:29;31.35;;;12.82;;
29044;SDS011;16133;49.486;12.176;2022-12-07T07:28:55;29.25;;;12.77;;
29044;SDS011;16133;49.486;12.176;2022-12-07T07:31:20;30.52;;;12.15;;
29044;SDS011;16133;49.486;12.176;2022-12-07T07:33:46;28.25;;;12.27;;
29044;SDS011;16133;49.486;12.176;2022-12-07T07:36:11;27.20;;;12.77;;
29044;SDS011;16133;49.486;12.176;2022-12-07T07:38:37;32.28;;;13.52;;
29044;SDS011;16133;49.486;12.176;2022-12-07T07:41:02;27.48;;;12.63;;
29044;SDS011;16133;49.486;12.176;2022-12-07T07:43:28;34.08;;;14.00;;
29044;SDS011;16133;49.486;12.176;2022-12-07T07:45:53;33.92;;;13.05;;
29044;SDS011;16133;49.486;12.176;2022-12-07T07:48:19;33.10;;;14.77;;
29044;SDS011;16133;49.486;12.176;2022-12-07T07:50:44;29.75;;;13.55;;
29044;SDS011;16133;49.486;12.176;2022-12-07T07:53:09;33.22;;;14.07;;
29044;SDS011;16133;49.486;12.176;2022-12-07T07:55:35;28.35;;;13.35;;
29044;SDS011;16133;49.486;12.176;2022-12-07T07:58:00;26.00;;;12.05;;
29044;SDS011;16133;49.486;12.176;2022-12-07T08:00:25;28.25;;;12.15;;
29044;SDS011;16133;49.486;12.176;2022-12-07T08:02:51;27.75;;;12.07;;
29044;SDS011;16133;49.486;12.176;2022-12-07T08:05:16;29.52;;;11.43;;
29044;SDS011;16133;49.486;12.176;2022-12-07T08:07:42;24.05;;;11.15;;
29044;SDS011;16133;49.486;12.176;2022-12-07T08:10:09;28.10;;;12.32;;
29044;SDS011;16133;49.486;12.176;2022-12-07T08:12:40;25.13;;;12.50;;
29044;SDS011;16133;49.486;12.176;2022-12-07T08:15:26;25.52;;;11.00;;
29044;SDS011;16133;49.486;12.176;2022-12-07T08:17:52;25.98;;;10.68;;
29044;SDS011;16133;49.486;12.176;2022-12-07T08:20:18;26.27;;;11.35;;
29044;SDS011;16133;49.486;12.176;2022-12-07T08:22:43;24.27;;;11.30;;
29044;SDS011;16133;49.486;12.176;2022-12-07T08:25:09;24.88;;;10.65;;
29044;SDS011;16133;49.486;12.176;2022-12-07T08:27:34;25.65;;;11.13;;
29044;SDS011;16133;49.486;12.176;2022-12-07T08:29:59;29.73;;;12.27;;
29044;SDS011;16133;49.486;12.176;2022-12-07T08:32:25;22.55;;;10.70;;
29044;SDS011;16133;49.486;12.176;2022-12-07T08:34:51;27.42;;;13.05;;
29044;SDS011;16133;49.486;12.176;2022-12-07T08:37:17;26.80;;;12.50;;
29044;SDS011;16133;49.486;12.176;2022-12-07T08:39:42;29.15;;;12.43;;
29044;SDS011;16133;49.486;12.176;2022-12-07T08:42:07;24.23;;;11.10;;
29044;SDS011;16133;49.486;12.176;2022-12-07T08:44:33;23.77;;;11.35;;
29044;SDS011;16133;49.486;12.176;2022-12-07T08:46:58;25.70;;;11.52;;
29044;SDS011;16133;49.486;12.176;2022-12-07T08:49:36;26.88;;;11.13;;
29044;SDS011;16133;49.486;12.176;2022-12-07T08:52:05;21.77;;;9.60;;
29044;SDS011;16133;49.486;12.176;2022-12-07T08:54:31;19.42;;;9.73;;
29044;SDS011;16133;49.486;12.176;2022-12-07T08:57:00;22.25;;;9.70;;
29044;SDS011;16133;49.486;12.176;2022-12-07T08:59:26;20.85;;;9.85;;
29044;SDS011;16133;49.486;12.176;2022-12-07T09:01:52;20.52;;;9.43;;
29044;SDS011;16133;49.486;12.176;2022-12-07T09:04:18;23.02;;;10.25;;
29044;SDS011;16133;49.486;12.176;2022-12-07T09:06:43;25.02;;;11.65;;
29044;SDS011;16133;49.486;12.176;2022-12-07T09:09:09;23.77;;;10.23;;
29044;SDS011;16133;49.486;12.176;2022-12-07T09:11:35;20.88;;;10.60;;
29044;SDS011;16133;49.486;12.176;2022-12-07T09:14:01;25.08;;;11.30;;
29044;SDS011;16133;49.486;12.176;2022-12-07T09:16:26;23.85;;;10.73;;
29044;SDS011;16133;49.486;12.176;2022-12-07T09:18:52;21.55;;;9.68;;
29044;SDS011;16133;49.486;12.176;2022-12-07T09:21:17;23.13;;;9.93;;
29044;SDS011;16133;49.486;12.176;2022-12-07T09:23:42;21.60;;;9.27;;
29044;SDS011;16133;49.486;12.176;2022-12-07T09:26:08;19.98;;;9.18;;
29044;SDS011;16133;49.486;12.176;2022-12-07T09:28:33;19.67;;;9.35;;
29044;SDS011;16133;49.486;12.176;2022-12-07T09:30:59;20.40;;;9.15;;
29044;SDS011;16133;49.486;12.176;2022-12-07T09:33:24;19.27;;;8.30;;
29044;SDS011;16133;49.486;12.176;2022-12-07T09:35:51;18.85;;;8.50;;
29044;SDS011;16133;49.486;12.176;2022-12-07T09:38:17;18.88;;;8.18;;
29044;SDS011;16133;49.486;12.176;2022-12-07T09:40:44;20.05;;;8.68;;
29044;SDS011;16133;49.486;12.176;2022-12-07T09:43:28;20.65;;;9.05;;
29044;SDS011;16133;49.486;12.176;2022-12-07T09:45:54;46.97;;;21.30;;
29044;SDS011;16133;49.486;12.176;2022-12-07T09:48:22;39.13;;;18.20;;
29044;SDS011;16133;49.486;12.176;2022-12-07T09:50:57;29.00;;;12.10;;
29044;SDS011;16133;49.486;12.176;2022-12-07T09:53:30;21.15;;;10.63;;
29044;SDS011;16133;49.486;12.176;2022-12-07T09:55:59;24.52;;;9.48;;
29044;SDS011;16133;49.486;12.176;2022-12-07T09:58:27;22.13;;;9.63;;
29044;SDS011;16133;49.486;12.176;2022-12-07T10:01:05;19.13;;;8.45;;
29044;SDS011;16133;49.486;12.176;2022-12-07T10:03:30;22.30;;;9.50;;
29044;SDS011;16133;49.486;12.176;2022-12-07T10:05:56;20.98;;;8.80;;
29044;SDS011;16133;49.486;12.176;2022-12-07T10:08:22;18.90;;;8.80;;
29044;SDS011;16133;49.486;12.176;2022-12-07T10:10:53;20.75;;;9.50;;
29044;SDS011;16133;49.486;12.176;2022-12-07T10:16:04;21.48;;;9.93;;
29044;SDS011;16133;49.486;12.176;2022-12-07T10:18:37;19.92;;;9.35;;
29044;SDS011;16133;49.486;12.176;2022-12-07T10:23:42;25.63;;;10.10;;
29044;SDS011;16133;49.486;12.176;2022-12-07T10:28:53;20.08;;;8.73;;
29044;SDS011;16133;49.486;12.176;2022-12-07T10:31:21;28.27;;;10.00;;
29044;SDS011;16133;49.486;12.176;2022-12-07T10:33:58;19.65;;;8.05;;
29044;SDS011;16133;49.486;12.176;2022-12-07T10:36:26;22.77;;;9.25;;
29044;SDS011;16133;49.486;12.176;2022-12-07T10:41:27;20.00;;;8.98;;
29044;SDS011;16133;49.486;12.176;2022-12-07T10:43:53;21.27;;;8.40;;
29044;SDS011;16133;49.486;12.176;2022-12-07T10:54:24;17.33;;;7.50;;
29044;SDS011;16133;49.486;12.176;2022-12-07T10:59:58;19.25;;;8.52;;
29044;SDS011;16133;49.486;12.176;2022-12-07T11:13:31;16.20;;;7.03;;
29044;SDS011;16133;49.486;12.176;2022-12-07T11:18:39;18.13;;;8.35;;
29044;SDS011;16133;49.486;12.176;2022-12-07T11:38:15;14.77;;;6.77;;
29044;SDS011;16133;49.486;12.176;2022-12-07T11:40:43;14.93;;;6.55;;
29044;SDS011;16133;49.486;12.176;2022-12-07T11:45:45;14.90;;;7.20;;
29044;SDS011;16133;49.486;12.176;2022-12-07T11:50:56;16.40;;;7.00;;
29044;SDS011;16133;49.486;12.176;2022-12-07T11:56:13;14.75;;;6.47;;
29044;SDS011;16133;49.486;12.176;2022-12-07T11:58:47;16.15;;;7.55;;
29044;SDS011;16133;49.486;12.176;2022-12-07T12:01:21;13.73;;;6.90;;
29044;SDS011;16133;49.486;12.176;2022-12-07T12:03:55;18.20;;;7.15;;
29044;SDS011;16133;49.486;12.176;2022-12-07T12:06:25;16.63;;;7.80;;
29044;SDS011;16133;49.486;12.176;2022-12-07T12:08:55;15.40;;;7.38;;
29044;SDS011;16133;49.486;12.176;2022-12-07T12:22:10;19.42;;;8.27;;
29044;SDS011;16133;49.486;12.176;2022-12-07T12:24:41;13.23;;;6.47;;
29044;SDS011;16133;49.486;12.176;2022-12-07T12:27:15;13.88;;;6.95;;
29044;SDS011;16133;49.486;12.176;2022-12-07T12:29:52;18.27;;;7.35;;
29044;SDS011;16133;49.486;12.176;2022-12-07T12:32:20;16.33;;;7.78;;
29044;SDS011;16133;49.486;12.176;2022-12-07T12:34:59;16.40;;;7.45;;
29044;SDS011;16133;49.486;12.176;2022-12-07T12:37:46;15.77;;;6.95;;
29044;SDS011;16133;49.486;12.176;2022-12-07T12:42:51;15.45;;;6.57;;
29044;SDS011;16133;49.486;12.176;2022-12-07T12:45:18;16.65;;;7.30;;
29044;SDS011;16133;49.486;12.176;2022-12-07T12:50:24;16.52;;;7.05;;
29044;SDS011;16133;49.486;12.176;2022-12-07T12:52:55;18.70;;;8.43;;
29044;SDS011;16133;49.486;12.176;2022-12-07T13:00:47;16.23;;;6.72;;
29044;SDS011;16133;49.486;12.176;2022-12-07T13:03:34;18.02;;;7.40;;
29044;SDS011;16133;49.486;12.176;2022-12-07T13:08:44;17.42;;;8.13;;
29044;SDS011;16133;49.486;12.176;2022-12-07T13:11:29;15.95;;;7.85;;
29044;SDS011;16133;49.486;12.176;2022-12-07T13:17:02;15.67;;;6.57;;
29044;SDS011;16133;49.486;12.176;2022-12-07T13:27:43;13.77;;;6.20;;
29044;SDS011;16133;49.486;12.176;2022-12-07T13:30:16;16.50;;;8.00;;
29044;SDS011;16133;49.486;12.176;2022-12-07T13:32:50;15.00;;;6.00;;
29044;SDS011;16133;49.486;12.176;2022-12-07T13:37:56;15.68;;;7.00;;
29044;SDS011;16133;49.486;12.176;2022-12-07T13:40:22;16.02;;;7.43;;
29044;SDS011;16133;49.486;12.176;2022-12-07T13:42:48;17.48;;;7.43;;
29044;SDS011;16133;49.486;12.176;2022-12-07T13:48:16;17.67;;;8.82;;
29044;SDS011;16133;49.486;12.176;2022-12-07T13:50:54;20.80;;;8.48;;
29044;SDS011;16133;49.486;12.176;2022-12-07T13:53:20;18.80;;;7.95;;
29044;SDS011;16133;49.486;12.176;2022-12-07T13:55:47;20.33;;;8.52;;
29044;SDS011;16133;49.486;12.176;2022-12-07T13:58:12;19.00;;;8.05;;
29044;SDS011;16133;49.486;12.176;2022-12-07T14:00:39;21.50;;;8.40;;
29044;SDS011;16133;49.486;12.176;2022-12-07T14:05:37;18.42;;;8.35;;
29044;SDS011;16133;49.486;12.176;2022-12-07T14:08:04;18.05;;;8.18;;
29044;SDS011;16133;49.486;12.176;2022-12-07T14:16:36;17.52;;;8.43;;
29044;SDS011;16133;49.486;12.176;2022-12-07T14:19:03;16.50;;;8.48;;
29044;SDS011;16133;49.486;12.176;2022-12-07T14:21:33;17.20;;;9.02;;
29044;SDS011;16133;49.486;12.176;2022-12-07T14:24:14;17.55;;;8.10;;
29044;SDS011;16133;49.486;12.176;2022-12-07T14:26:45;18.92;;;8.48;;
29044;SDS011;16133;49.486;12.176;2022-12-07T14:29:18;19.83;;;8.80;;
29044;SDS011;16133;49.486;12.176;2022-12-07T14:31:45;17.20;;;8.52;;
29044;SDS011;16133;49.486;12.176;2022-12-07T14:34:13;18.58;;;8.48;;
29044;SDS011;16133;49.486;12.176;2022-12-07T14:36:39;19.33;;;8.80;;
29044;SDS011;16133;49.486;12.176;2022-12-07T14:39:04;20.35;;;9.43;;
29044;SDS011;16133;49.486;12.176;2022-12-07T14:41:30;19.67;;;8.75;;
29044;SDS011;16133;49.486;12.176;2022-12-07T14:44:14;20.52;;;8.43;;
29044;SDS011;16133;49.486;12.176;2022-12-07T14:46:39;19.10;;;9.15;;
29044;SDS011;16133;49.486;12.176;2022-12-07T14:49:04;19.40;;;8.80;;
29044;SDS011;16133;49.486;12.176;2022-12-07T14:51:30;19.17;;;8.80;;
29044;SDS011;16133;49.486;12.176;2022-12-07T14:53:56;39.25;;;15.70;;
29044;SDS011;16133;49.486;12.176;2022-12-07T14:56:23;28.60;;;12.63;;
29044;SDS011;16133;49.486;12.176;2022-12-07T14:58:49;25.23;;;11.15;;
29044;SDS011;16133;49.486;12.176;2022-12-07T15:01:14;21.80;;;10.18;;
29044;SDS011;16133;49.486;12.176;2022-12-07T15:03:39;52.33;;;20.92;;
29044;SDS011;16133;49.486;12.176;2022-12-07T15:06:05;63.53;;;25.08;;
29044;SDS011;16133;49.486;12.176;2022-12-07T15:08:31;65.82;;;28.83;;
29044;SDS011;16133;49.486;12.176;2022-12-07T15:10:57;50.28;;;19.48;;
29044;SDS011;16133;49.486;12.176;2022-12-07T15:13:22;33.75;;;14.23;;
29044;SDS011;16133;49.486;12.176;2022-12-07T15:16:08;33.28;;;12.32;;
29044;SDS011;16133;49.486;12.176;2022-12-07T15:18:36;20.15;;;10.20;;
29044;SDS011;16133;49.486;12.176;2022-12-07T15:21:01;22.52;;;10.40;;
29044;SDS011;16133;49.486;12.176;2022-12-07T15:23:27;19.45;;;9.60;;
29044;SDS011;16133;49.486;12.176;2022-12-07T15:25:52;16.45;;;8.57;;
29044;SDS011;16133;49.486;12.176;2022-12-07T15:28:18;18.85;;;8.25;;
29044;SDS011;16133;49.486;12.176;2022-12-07T15:30:43;17.15;;;8.07;;
29044;SDS011;16133;49.486;12.176;2022-12-07T15:33:09;18.33;;;8.40;;
29044;SDS011;16133;49.486;12.176;2022-12-07T15:35:39;17.23;;;8.05;;
29044;SDS011;16133;49.486;12.176;2022-12-07T15:38:05;30.10;;;10.70;;
29044;SDS011;16133;49.486;12.176;2022-12-07T15:40:31;33.67;;;12.68;;
29044;SDS011;16133;49.486;12.176;2022-12-07T15:42:56;23.83;;;11.10;;
29044;SDS011;16133;49.486;12.176;2022-12-07T15:45:22;21.00;;;9.10;;
29044;SDS011;16133;49.486;12.176;2022-12-07T15:47:47;18.65;;;8.05;;
29044;SDS011;16133;49.486;12.176;2022-12-07T15:50:13;18.17;;;7.38;;
29044;SDS011;16133;49.486;12.176;2022-12-07T15:52:40;13.90;;;6.53;;
29044;SDS011;16133;49.486;12.176;2022-12-07T15:55:06;11.77;;;5.80;;
29044;SDS011;16133;49.486;12.176;2022-12-07T15:57:32;12.18;;;5.95;;
29044;SDS011;16133;49.486;12.176;2022-12-07T16:00:00;13.77;;;5.20;;
29044;SDS011;16133;49.486;12.176;2022-12-07T16:02:26;13.30;;;7.07;;
29044;SDS011;16133;49.486;12.176;2022-12-07T16:04:51;14.60;;;6.38;;
29044;SDS011;16133;49.486;12.176;2022-12-07T16:07:17;15.43;;;7.03;;
29044;SDS011;16133;49.486;12.176;2022-12-07T16:09:43;17.08;;;6.88;;
29044;SDS011;16133;49.486;12.176;2022-12-07T16:12:10;17.77;;;6.78;;
29044;SDS011;16133;49.486;12.176;2022-12-07T16:14:36;15.20;;;6.97;;
29044;SDS011;16133;49.486;12.176;2022-12-07T16:17:03;16.30;;;6.90;;
29044;SDS011;16133;49.486;12.176;2022-12-07T16:19:29;20.85;;;8.93;;
29044;SDS011;16133;49.486;12.176;2022-12-07T16:21:55;19.80;;;8.63;;
29044;SDS011;16133;49.486;12.176;2022-12-07T16:24:21;18.00;;;8.60;;
29044;SDS011;16133;49.486;12.176;2022-12-07T16:26:46;23.40;;;9.60;;
29044;SDS011;16133;49.486;12.176;2022-12-07T16:29:12;18.98;;;8.73;;
29044;SDS011;16133;49.486;12.176;2022-12-07T16:31:37;22.77;;;9.00;;
29044;SDS011;16133;49.486;12.176;2022-12-07T16:34:03;19.15;;;8.98;;
29044;SDS011;16133;49.486;12.176;2022-12-07T16:36:28;19.80;;;9.35;;
29044;SDS011;16133;49.486;12.176;2022-12-07T16:38:54;23.70;;;9.57;;
29044;SDS011;16133;49.486;12.176;2022-12-07T16:41:20;28.23;;;12.43;;
29044;SDS011;16133;49.486;12.176;2022-12-07T16:43:46;26.63;;;11.93;;